createdAt,value
2019-03-11T00:00:37.045Z,99.90
2019-03-11T00:03:06.682Z,99.90
2019-03-11T00:05:36.270Z,99.90
2019-03-11T00:08:06.721Z,99.90
2019-03-11T00:10:36.249Z,99.90
2019-03-11T00:13:05.794Z,99.90
2019-03-11T00:15:35.293Z,99.90
2019-03-11T00:18:04.837Z,99.90
2019-03-11T00:20:34.403Z,99.80
2019-03-11T00:23:03.945Z,99.80
2019-03-11T00:25:33.465Z,99.90
2019-03-11T00:28:03.000Z,99.90
2019-03-11T00:30:32.522Z,99.90
2019-03-11T00:33:02.063Z,99.90
2019-03-11T00:35:31.619Z,99.90
2019-03-11T00:38:01.146Z,99.90
2019-03-11T00:40:30.725Z,99.90
2019-03-11T00:43:00.221Z,99.90
2019-03-11T00:45:29.748Z,99.90
2019-03-11T00:48:02.419Z,99.90
2019-03-11T00:50:30.494Z,99.90
2019-03-11T00:53:00.099Z,99.90
2019-03-11T00:55:29.637Z,99.90
2019-03-11T00:57:59.199Z,99.90
2019-03-11T01:00:31.188Z,99.70
2019-03-11T01:03:00.747Z,99.90
2019-03-11T01:05:30.269Z,99.70
2019-03-11T01:07:59.786Z,99.80
2019-03-11T01:10:29.270Z,99.90
2019-03-11T01:12:58.846Z,99.90
2019-03-11T01:15:28.408Z,99.90
2019-03-11T01:17:58.014Z,99.60
2019-03-11T01:20:27.905Z,99.70
2019-03-11T01:22:57.402Z,99.60
2019-03-11T01:25:26.928Z,99.60
2019-03-11T01:27:56.402Z,99.90
2019-03-11T01:30:25.928Z,99.90
2019-03-11T01:32:55.416Z,99.90
2019-03-11T01:35:25.011Z,99.90
2019-03-11T01:37:54.509Z,99.90
2019-03-11T01:40:24.062Z,99.90
2019-03-11T01:42:53.553Z,99.90
2019-03-11T01:45:23.082Z,99.90
2019-03-11T01:47:52.578Z,99.80
2019-03-11T01:50:22.106Z,99.90
2019-03-11T01:52:51.633Z,99.90
2019-03-11T01:55:21.433Z,99.90
2019-03-11T01:57:50.960Z,99.90
2019-03-11T02:00:20.589Z,99.90
2019-03-11T02:02:50.142Z,99.90
2019-03-11T02:05:19.682Z,99.90
2019-03-11T02:07:49.266Z,99.90
2019-03-11T02:10:19.103Z,99.90
2019-03-11T02:12:48.540Z,99.90
2019-03-11T02:15:18.192Z,99.90
2019-03-11T02:17:47.853Z,99.90
2019-03-11T02:20:17.591Z,99.90
2019-03-11T02:22:47.153Z,99.90
2019-03-11T02:25:16.862Z,99.90
2019-03-11T02:27:46.374Z,99.90
2019-03-11T02:30:16.272Z,99.90
2019-03-11T02:32:45.886Z,99.90
2019-03-11T02:35:25.149Z,99.90
2019-03-11T02:37:54.694Z,99.90
2019-03-11T02:40:24.183Z,99.90
2019-03-11T02:42:53.695Z,99.90
2019-03-11T02:45:23.168Z,99.90
2019-03-11T02:47:52.733Z,99.90
2019-03-11T02:50:22.271Z,99.90
2019-03-11T02:52:51.815Z,99.90
2019-03-11T02:55:21.366Z,99.90
2019-03-11T02:57:50.897Z,99.90
2019-03-11T03:00:20.875Z,99.90
2019-03-11T03:03:08.084Z,99.70
2019-03-11T03:05:41.447Z,99.90
2019-03-11T03:08:10.952Z,99.90
2019-03-11T03:10:40.561Z,99.80
2019-03-11T03:13:10.079Z,99.80
2019-03-11T03:15:39.595Z,99.80
2019-03-11T03:18:09.137Z,99.80
2019-03-11T03:20:38.651Z,99.90
2019-03-11T03:23:08.194Z,99.80
2019-03-11T03:25:37.711Z,99.90
2019-03-11T03:28:07.434Z,99.80
2019-03-11T03:30:37.198Z,99.90
2019-03-11T03:33:06.743Z,99.70
2019-03-11T03:35:36.204Z,99.60
2019-03-11T03:38:05.752Z,99.90
2019-03-11T03:40:35.247Z,99.80
2019-03-11T03:43:04.905Z,99.80
2019-03-11T03:45:40.591Z,99.80
2019-03-11T03:48:10.303Z,99.70
2019-03-11T03:50:40.402Z,99.90
2019-03-11T03:53:10.305Z,99.90
2019-03-11T03:55:39.855Z,99.80
2019-03-11T03:58:09.348Z,99.90
2019-03-11T04:00:38.894Z,99.70
2019-03-11T04:03:08.480Z,99.70
2019-03-11T04:05:38.033Z,99.80
2019-03-11T04:08:07.628Z,99.80
2019-03-11T04:10:37.233Z,99.70
2019-03-11T04:13:06.755Z,99.60
2019-03-11T04:15:36.450Z,99.60
2019-03-11T04:18:09.292Z,99.90
2019-03-11T04:20:39.107Z,99.80
2019-03-11T04:23:08.786Z,99.70
2019-03-11T04:25:38.322Z,99.70
2019-03-11T04:28:07.947Z,99.70
2019-03-11T04:30:37.559Z,99.90
2019-03-11T04:33:07.207Z,99.80
2019-03-11T04:35:36.685Z,99.80
2019-03-11T04:38:06.243Z,99.80
2019-03-11T04:40:35.743Z,99.60
2019-03-11T04:43:05.289Z,99.80
2019-03-11T04:45:34.910Z,99.70
2019-03-11T04:48:04.454Z,99.70
2019-03-11T04:50:33.973Z,99.70
2019-03-11T04:53:03.499Z,99.80
2019-03-11T04:55:32.995Z,99.70
2019-03-11T04:58:02.563Z,99.80
2019-03-11T05:00:32.104Z,99.80
2019-03-11T05:03:01.669Z,99.80
2019-03-11T05:05:31.274Z,99.80
2019-03-11T05:08:00.915Z,99.90
2019-03-11T05:10:30.392Z,99.90
2019-03-11T05:12:59.920Z,99.80
2019-03-11T05:15:29.473Z,99.70
2019-03-11T05:17:59.001Z,99.90
2019-03-11T05:20:28.598Z,99.90
2019-03-11T05:22:58.175Z,99.90
2019-03-11T05:25:27.690Z,99.90
2019-03-11T05:27:57.259Z,99.90
2019-03-11T05:30:26.948Z,99.90
2019-03-11T05:32:57.205Z,99.90
2019-03-11T05:35:26.670Z,99.90
2019-03-11T05:37:56.198Z,99.90
2019-03-11T05:40:26.066Z,99.90
2019-03-11T05:42:56.239Z,99.90
2019-03-11T05:45:25.774Z,99.90
2019-03-11T05:47:55.235Z,99.90
2019-03-11T05:50:24.927Z,99.90
2019-03-11T05:52:54.427Z,99.90
2019-03-11T05:55:23.941Z,99.90
2019-03-11T05:57:53.458Z,99.90
2019-03-11T06:00:26.431Z,99.90
2019-03-11T06:02:55.982Z,99.90
2019-03-11T06:05:25.512Z,99.90
2019-03-11T06:07:55.031Z,99.90
2019-03-11T06:10:24.619Z,99.90
2019-03-11T06:12:55.005Z,99.90
2019-03-11T06:15:24.558Z,99.90
2019-03-11T06:17:54.095Z,99.90
2019-03-11T06:20:40.881Z,99.90
2019-03-11T06:23:11.169Z,99.90
2019-03-11T06:25:40.717Z,99.90
2019-03-11T06:28:10.249Z,99.90
2019-03-11T06:30:39.746Z,99.80
2019-03-11T06:33:09.839Z,99.80
2019-03-11T06:35:40.520Z,99.90
2019-03-11T06:38:10.404Z,99.90
2019-03-11T06:40:40.047Z,99.90
2019-03-11T06:43:09.509Z,99.90
2019-03-11T06:45:40.342Z,99.80
2019-03-11T06:48:09.911Z,99.90
2019-03-11T06:50:39.617Z,99.90
2019-03-11T06:53:09.203Z,99.90
2019-03-11T06:55:38.778Z,99.80
2019-03-11T06:58:08.255Z,99.80
2019-03-11T07:00:37.814Z,99.80
2019-03-11T07:03:07.279Z,99.70
2019-03-11T07:05:36.835Z,99.60
2019-03-11T07:08:06.405Z,99.80
2019-03-11T07:10:36.298Z,99.70
2019-03-11T07:13:05.770Z,99.40
2019-03-11T07:15:35.278Z,99.50
2019-03-11T07:18:06.683Z,99.10
2019-03-11T07:20:35.887Z,99.00
2019-03-11T07:23:05.350Z,99.00
2019-03-11T07:25:34.870Z,99.20
2019-03-11T07:28:05.170Z,99.10
2019-03-11T07:30:34.691Z,98.90
2019-03-11T07:33:06.888Z,99.40
2019-03-11T07:35:35.402Z,98.90
2019-03-11T07:38:04.920Z,98.60
2019-03-11T07:40:34.466Z,98.80
2019-03-11T07:43:03.931Z,98.50
2019-03-11T07:45:33.459Z,98.80
2019-03-11T07:48:02.979Z,98.80
2019-03-11T07:50:32.518Z,98.70
2019-03-11T07:53:02.010Z,98.90
2019-03-11T07:55:33.574Z,98.80
2019-03-11T07:58:03.130Z,98.80
2019-03-11T08:00:32.616Z,98.40
2019-03-11T08:03:02.141Z,98.80
2019-03-11T08:05:31.643Z,98.60
2019-03-11T08:08:01.234Z,98.20
2019-03-11T08:10:30.870Z,98.60
2019-03-11T08:13:00.329Z,98.30
2019-03-11T08:15:29.883Z,98.50
2019-03-11T08:17:59.352Z,97.40
2019-03-11T08:20:28.863Z,98.50
2019-03-11T08:22:58.437Z,98.70
2019-03-11T08:25:27.903Z,98.70
2019-03-11T08:27:57.419Z,98.50
2019-03-11T08:30:26.988Z,98.90
2019-03-11T08:32:56.551Z,98.50
2019-03-11T08:35:26.055Z,97.70
2019-03-11T08:37:55.564Z,98.50
2019-03-11T08:40:25.122Z,98.30
2019-03-11T08:42:54.672Z,98.80
2019-03-11T08:45:24.499Z,98.40
2019-03-11T08:47:55.401Z,98.20
2019-03-11T08:50:24.952Z,98.60
2019-03-11T08:52:54.967Z,98.00
2019-03-11T08:55:24.687Z,97.80
2019-03-11T08:57:55.849Z,98.20
2019-03-11T09:00:26.483Z,98.40
2019-03-11T09:02:57.074Z,98.10
2019-03-11T09:05:26.659Z,97.70
2019-03-11T09:07:56.200Z,97.40
2019-03-11T09:10:25.794Z,98.50
2019-03-11T09:12:55.301Z,97.60
2019-03-11T09:15:24.901Z,97.00
2019-03-11T09:17:54.493Z,97.90
2019-03-11T09:20:23.973Z,97.90
2019-03-11T09:22:53.506Z,98.10
2019-03-11T09:25:23.034Z,98.20
2019-03-11T09:27:52.579Z,97.50
2019-03-11T09:30:22.162Z,96.90
2019-03-11T09:32:51.693Z,97.80
2019-03-11T09:35:21.165Z,97.50
2019-03-11T09:37:50.751Z,97.60
2019-03-11T09:40:20.269Z,96.50
2019-03-11T09:42:49.955Z,97.90
2019-03-11T09:45:19.533Z,96.80
2019-03-11T09:47:49.059Z,96.80
2019-03-11T09:50:18.650Z,97.60
2019-03-11T09:52:48.238Z,96.30
2019-03-11T09:55:17.747Z,96.90
2019-03-11T09:57:47.252Z,97.10
2019-03-11T10:00:18.917Z,96.30
2019-03-11T10:02:52.804Z,97.40
2019-03-11T10:05:19.543Z,96.80
2019-03-11T10:07:49.175Z,97.90
2019-03-11T10:10:18.742Z,97.40
2019-03-11T10:12:49.804Z,97.70
2019-03-11T10:15:19.591Z,97.80
2019-03-11T10:17:49.082Z,97.70
2019-03-11T10:20:18.748Z,96.70
2019-03-11T10:22:49.031Z,96.50
2019-03-11T10:25:18.903Z,97.70
2019-03-11T10:27:48.453Z,97.20
2019-03-11T10:30:18.403Z,97.40
2019-03-11T10:32:47.885Z,97.10
2019-03-11T10:35:31.480Z,97.20
2019-03-11T10:37:48.615Z,97.00
2019-03-11T10:40:19.701Z,97.00
2019-03-11T10:42:50.451Z,97.10
2019-03-11T10:45:31.396Z,97.20
2019-03-11T10:47:54.177Z,96.70
2019-03-11T10:50:23.765Z,97.40
2019-03-11T10:52:53.789Z,97.30
2019-03-11T10:55:23.791Z,97.20
2019-03-11T10:57:53.511Z,95.50
2019-03-11T11:00:25.127Z,96.20
2019-03-11T11:02:55.629Z,97.00
2019-03-11T11:05:25.533Z,96.00
2019-03-11T11:07:56.039Z,97.20
2019-03-11T11:10:26.114Z,96.30
2019-03-11T11:12:55.614Z,96.10
2019-03-11T11:15:25.331Z,96.70
2019-03-11T11:17:54.984Z,97.20
2019-03-11T11:20:25.488Z,97.20
2019-03-11T11:22:55.850Z,97.40
2019-03-11T11:25:25.674Z,97.60
2019-03-11T11:27:55.930Z,97.90
2019-03-11T11:30:27.055Z,97.40
2019-03-11T11:32:57.536Z,97.90
2019-03-11T11:35:27.471Z,97.50
2019-03-11T11:37:57.026Z,97.70
2019-03-11T11:40:26.688Z,97.70
2019-03-11T11:42:56.903Z,97.10
2019-03-11T11:45:26.618Z,97.70
2019-03-11T11:47:56.276Z,98.00
2019-03-11T11:50:26.271Z,98.00
2019-03-11T11:52:56.034Z,98.00
2019-03-11T11:55:25.651Z,98.20
2019-03-11T11:57:55.138Z,98.00
2019-03-11T12:00:27.686Z,98.00
2019-03-11T12:02:57.195Z,98.20
2019-03-11T12:05:26.755Z,98.10
2019-03-11T12:07:56.807Z,98.00
2019-03-11T12:10:27.015Z,98.20
2019-03-11T12:12:56.690Z,98.20
2019-03-11T12:15:26.228Z,97.80
2019-03-11T12:17:55.754Z,98.10
2019-03-11T12:20:25.332Z,98.00
2019-03-11T12:22:54.945Z,97.60
2019-03-11T12:25:24.488Z,97.40
2019-03-11T12:27:54.727Z,97.80
2019-03-11T12:30:25.603Z,97.90
2019-03-11T12:32:55.156Z,97.80
2019-03-11T12:35:24.967Z,97.30
2019-03-11T12:37:54.575Z,97.00
2019-03-11T12:40:24.323Z,97.20
2019-03-11T12:42:53.977Z,95.80
2019-03-11T12:45:24.411Z,96.00
2019-03-11T12:47:54.147Z,96.10
2019-03-11T12:50:24.570Z,96.80
2019-03-11T12:52:54.193Z,96.90
2019-03-11T12:55:23.723Z,97.10
2019-03-11T12:57:53.231Z,96.80
2019-03-11T13:00:22.869Z,95.50
2019-03-11T13:02:52.387Z,96.30
2019-03-11T13:05:22.575Z,96.60
2019-03-11T13:07:52.119Z,96.30
2019-03-11T13:10:21.787Z,96.10
2019-03-11T13:12:51.386Z,95.40
2019-03-11T13:15:21.403Z,97.00
2019-03-11T13:17:50.919Z,96.30
2019-03-11T13:20:30.033Z,95.90
2019-03-11T13:22:59.603Z,95.50
2019-03-11T13:25:29.135Z,95.00
2019-03-11T13:27:58.803Z,96.30
2019-03-11T13:30:28.310Z,96.20
2019-03-11T13:32:57.844Z,96.30
2019-03-11T13:35:30.627Z,96.10
2019-03-11T13:38:00.184Z,95.80
2019-03-11T13:40:29.711Z,96.40
2019-03-11T13:42:59.370Z,96.30
2019-03-11T13:45:28.877Z,96.10
2019-03-11T13:47:59.061Z,96.30
2019-03-11T13:50:28.741Z,95.80
2019-03-11T13:52:59.208Z,96.30
2019-03-11T13:55:28.717Z,95.70
2019-03-11T13:58:00.054Z,95.60
2019-03-11T14:00:29.549Z,95.90
2019-03-11T14:02:59.065Z,96.10
2019-03-11T14:05:28.643Z,96.40
2019-03-11T14:07:58.126Z,95.90
2019-03-11T14:10:27.630Z,95.10
2019-03-11T14:12:57.103Z,95.50
2019-03-11T14:15:26.621Z,96.00
2019-03-11T14:17:56.111Z,95.50
2019-03-11T14:20:25.615Z,95.30
2019-03-11T14:22:55.094Z,96.00
2019-03-11T14:25:24.575Z,96.50
2019-03-11T14:27:54.048Z,96.50
2019-03-11T14:30:23.565Z,97.60
2019-03-11T14:32:53.074Z,97.50
2019-03-11T14:35:22.562Z,97.70
2019-03-11T14:37:54.895Z,98.10
2019-03-11T14:40:24.539Z,97.60
2019-03-11T14:42:53.990Z,97.40
2019-03-11T14:45:23.555Z,97.70
2019-03-11T14:47:53.056Z,98.00
2019-03-11T14:50:22.590Z,97.90
2019-03-11T14:52:52.112Z,97.80
2019-03-11T14:55:21.690Z,98.10
2019-03-11T14:57:51.359Z,98.20
2019-03-11T15:00:21.455Z,97.90
2019-03-11T15:02:51.109Z,98.00
2019-03-11T15:05:20.628Z,98.20
2019-03-11T15:07:50.129Z,97.70
2019-03-11T15:10:19.795Z,98.10
2019-03-11T15:12:49.642Z,97.80
2019-03-11T15:15:19.700Z,97.60
2019-03-11T15:17:50.068Z,97.70
2019-03-11T15:20:19.290Z,97.50
2019-03-11T15:22:49.030Z,97.60
2019-03-11T15:25:19.414Z,97.90
2019-03-11T15:27:49.008Z,97.70
2019-03-11T15:30:18.589Z,97.50
2019-03-11T15:32:48.051Z,97.20
2019-03-11T15:35:17.695Z,97.30
2019-03-11T15:37:47.410Z,97.60
2019-03-11T15:40:16.930Z,97.50
2019-03-11T15:42:46.517Z,97.50
2019-03-11T15:45:16.238Z,97.40
2019-03-11T15:47:45.966Z,97.40
2019-03-11T15:50:17.828Z,97.50
2019-03-11T15:52:48.331Z,97.70
2019-03-11T15:55:18.120Z,98.00
2019-03-11T15:57:50.392Z,97.50
2019-03-11T16:00:20.946Z,97.70
2019-03-11T16:02:50.491Z,97.70
2019-03-11T16:05:20.395Z,97.60
2019-03-11T16:07:50.255Z,97.90
2019-03-11T16:10:19.833Z,97.60
2019-03-11T16:12:49.652Z,97.60
2019-03-11T16:15:20.051Z,98.10
2019-03-11T16:17:49.578Z,98.60
2019-03-11T16:20:21.876Z,98.10
2019-03-11T16:22:51.547Z,98.50
2019-03-11T16:25:21.054Z,98.30
2019-03-11T16:27:50.640Z,99.00
2019-03-11T16:30:20.768Z,99.60
2019-03-11T16:32:59.438Z,98.70
2019-03-11T16:35:22.119Z,98.70
2019-03-11T16:37:52.450Z,98.70
2019-03-11T16:40:21.969Z,98.90
2019-03-11T16:42:51.471Z,98.90
2019-03-11T16:45:21.900Z,98.70
2019-03-11T16:47:51.468Z,98.70
2019-03-11T16:50:21.074Z,99.10
2019-03-11T16:52:50.567Z,99.20
2019-03-11T16:55:23.303Z,98.90
2019-03-11T16:57:53.835Z,99.00
2019-03-11T17:00:29.044Z,99.20
2019-03-11T17:02:58.573Z,99.10
2019-03-11T17:05:28.355Z,98.30
2019-03-11T17:07:57.907Z,98.90
2019-03-11T17:10:28.339Z,98.30
2019-03-11T17:12:57.914Z,98.90
2019-03-11T17:15:27.555Z,98.00
2019-03-11T17:17:57.103Z,98.30
2019-03-11T17:20:26.612Z,98.30
2019-03-11T17:22:59.161Z,98.10
2019-03-11T17:25:28.622Z,98.80
2019-03-11T17:27:58.175Z,98.10
2019-03-11T17:30:27.811Z,98.90
2019-03-11T17:32:58.176Z,99.10
2019-03-11T17:35:27.646Z,98.20
2019-03-11T17:37:57.163Z,98.40
2019-03-11T17:40:26.838Z,99.20
2019-03-11T17:42:56.381Z,97.90
2019-03-11T17:45:25.831Z,97.80
2019-03-11T17:47:55.486Z,97.80
2019-03-11T17:50:27.934Z,98.50
2019-03-11T17:52:57.459Z,99.20
2019-03-11T17:55:26.949Z,98.20
2019-03-11T17:57:56.463Z,99.10
2019-03-11T18:00:27.712Z,97.80
2019-03-11T18:02:57.250Z,98.10
2019-03-11T18:05:26.802Z,98.90
2019-03-11T18:07:56.378Z,97.60
2019-03-11T18:10:25.922Z,97.40
2019-03-11T18:12:58.858Z,97.80
2019-03-11T18:15:28.406Z,97.60
2019-03-11T18:17:57.910Z,98.00
2019-03-11T18:20:27.575Z,97.80
2019-03-11T18:22:57.208Z,97.40
2019-03-11T18:25:26.781Z,97.80
2019-03-11T18:27:56.373Z,98.20
2019-03-11T18:30:25.986Z,98.40
2019-03-11T18:32:55.523Z,98.30
2019-03-11T18:35:27.591Z,98.00
2019-03-11T18:38:03.950Z,97.90
2019-03-11T18:40:28.602Z,97.70
2019-03-11T18:42:58.243Z,98.00
2019-03-11T18:45:27.794Z,97.70
2019-03-11T18:47:57.289Z,98.10
2019-03-11T18:50:27.094Z,98.30
2019-03-11T18:52:56.720Z,97.90
2019-03-11T18:55:26.383Z,98.30
2019-03-11T18:57:56.097Z,98.20
2019-03-11T19:00:25.978Z,97.90
2019-03-11T19:02:55.564Z,98.50
2019-03-11T19:05:25.129Z,98.80
2019-03-11T19:07:55.365Z,99.00
2019-03-11T19:10:25.326Z,99.10
2019-03-11T19:12:54.795Z,99.20
2019-03-11T19:15:27.476Z,99.20
2019-03-11T19:17:56.994Z,98.70
2019-03-11T19:20:26.699Z,98.70
2019-03-11T19:22:56.414Z,99.00
2019-03-11T19:25:26.047Z,98.40
2019-03-11T19:27:55.694Z,98.60
2019-03-11T19:30:25.339Z,98.50
2019-03-11T19:32:55.182Z,99.20
2019-03-11T19:35:25.057Z,98.50
2019-03-11T19:37:55.514Z,98.80
2019-03-11T19:40:25.008Z,98.40
2019-03-11T19:42:54.821Z,98.60
2019-03-11T19:45:24.536Z,98.70
2019-03-11T19:47:54.059Z,98.90
2019-03-11T19:50:23.795Z,98.30
2019-03-11T19:52:59.136Z,98.60
2019-03-11T19:55:24.675Z,98.50
2019-03-11T19:57:54.283Z,98.20
2019-03-11T20:00:24.020Z,98.20
2019-03-11T20:02:55.140Z,98.10
2019-03-11T20:05:25.268Z,98.50
2019-03-11T20:07:54.727Z,98.30
2019-03-11T20:10:24.683Z,98.60
2019-03-11T20:12:54.246Z,98.20
2019-03-11T20:15:23.800Z,97.80
2019-03-11T20:17:53.383Z,97.80
2019-03-11T20:20:23.152Z,98.20
2019-03-11T20:22:52.914Z,98.50
2019-03-11T20:25:25.089Z,98.90
2019-03-11T20:27:54.658Z,98.70
2019-03-11T20:30:24.631Z,99.00
2019-03-11T20:32:54.236Z,99.20
2019-03-11T20:35:23.971Z,98.10
2019-03-11T20:37:53.727Z,98.80
2019-03-11T20:40:24.202Z,98.90
2019-03-11T20:42:53.904Z,98.80
2019-03-11T20:45:23.493Z,98.50
2019-03-11T20:47:53.128Z,98.70
2019-03-11T20:50:22.626Z,99.80
2019-03-11T20:52:52.246Z,99.00
2019-03-11T20:55:21.741Z,98.50
2019-03-11T20:57:51.429Z,98.50
2019-03-11T21:00:21.197Z,99.50
2019-03-11T21:02:50.952Z,98.50
2019-03-11T21:05:23.191Z,98.60
2019-03-11T21:07:52.880Z,98.60
2019-03-11T21:10:22.465Z,98.60
2019-03-11T21:12:51.981Z,98.80
2019-03-11T21:15:22.608Z,99.20
2019-03-11T21:17:52.126Z,99.80
2019-03-11T21:20:21.844Z,98.80
2019-03-11T21:22:51.559Z,99.00
2019-03-11T21:25:21.302Z,98.10
2019-03-11T21:27:50.908Z,98.50
2019-03-11T21:30:21.240Z,98.70
2019-03-11T21:32:50.965Z,98.60
2019-03-11T21:35:21.379Z,98.80
2019-03-11T21:37:51.035Z,98.50
2019-03-11T21:40:20.686Z,98.80
2019-03-11T21:42:50.405Z,99.20
2019-03-11T21:45:32.930Z,99.30
2019-03-11T21:47:51.574Z,99.90
2019-03-11T21:50:21.810Z,99.30
2019-03-11T21:52:51.494Z,98.80
2019-03-11T21:55:21.096Z,99.50
2019-03-11T21:57:50.643Z,99.00
2019-03-11T22:00:32.957Z,98.90
2019-03-11T22:02:53.075Z,99.80
2019-03-11T22:05:23.556Z,99.90
2019-03-11T22:07:53.185Z,99.80
2019-03-11T22:10:22.901Z,99.60
2019-03-11T22:12:52.484Z,99.90
2019-03-11T22:15:22.046Z,99.60
2019-03-11T22:17:52.335Z,99.60
2019-03-11T22:20:21.970Z,99.90
2019-03-11T22:22:51.491Z,99.80
2019-03-11T22:25:21.168Z,99.20
2019-03-11T22:27:50.779Z,99.80
2019-03-11T22:30:20.712Z,99.10
2019-03-11T22:32:50.224Z,99.60
2019-03-11T22:35:20.925Z,99.30
2019-03-11T22:37:50.423Z,99.80
2019-03-11T22:40:20.474Z,99.90
2019-03-11T22:42:49.961Z,99.90
2019-03-11T22:45:21.588Z,99.90
2019-03-11T22:47:51.228Z,99.10
2019-03-11T22:50:20.739Z,99.20
2019-03-11T22:52:50.710Z,99.50
2019-03-11T22:55:20.332Z,99.30
2019-03-11T22:57:49.857Z,99.90
2019-03-11T23:00:35.491Z,99.90
2019-03-11T23:03:06.687Z,99.90
2019-03-11T23:05:36.281Z,99.30
2019-03-11T23:08:05.826Z,99.70
2019-03-11T23:10:35.323Z,99.30
2019-03-11T23:13:04.864Z,99.70
2019-03-11T23:15:34.410Z,99.30
2019-03-11T23:18:04.649Z,99.90
2019-03-11T23:20:34.159Z,99.90
2019-03-11T23:23:03.715Z,99.90
2019-03-11T23:25:33.214Z,99.90
2019-03-11T23:28:02.749Z,99.90
2019-03-11T23:30:32.903Z,99.90
2019-03-11T23:33:02.428Z,99.90
2019-03-11T23:35:32.065Z,99.80
2019-03-11T23:38:01.563Z,99.40
2019-03-11T23:40:31.078Z,99.40
2019-03-11T23:43:00.595Z,99.60
2019-03-11T23:45:30.150Z,99.80
2019-03-11T23:47:59.624Z,99.90
2019-03-11T23:50:29.127Z,99.70
2019-03-11T23:52:58.679Z,99.80
2019-03-11T23:55:28.185Z,99.90
2019-03-11T23:57:57.728Z,99.90
